sensor_id;sensor_type;location;lat;lon;timestamp;P1;durP1;ratioP1;P2;durP2;ratioP2
64633;SDS011;51043;52.406;9.690;2023-01-15T00:01:35;4.27;;;1.40;;
64633;SDS011;51043;52.406;9.690;2023-01-15T00:04:04;5.00;;;1.40;;
64633;SDS011;51043;52.406;9.690;2023-01-15T00:06:39;3.63;;;1.70;;
64633;SDS011;51043;52.406;9.690;2023-01-15T00:09:08;3.40;;;1.30;;
64633;SDS011;51043;52.406;9.690;2023-01-15T00:11:39;2.00;;;0.90;;
64633;SDS011;51043;52.406;9.690;2023-01-15T00:14:06;3.50;;;1.20;;
64633;SDS011;51043;52.406;9.690;2023-01-15T00:16:33;2.77;;;1.13;;
64633;SDS011;51043;52.406;9.690;2023-01-15T00:19:00;2.40;;;1.20;;
64633;SDS011;51043;52.406;9.690;2023-01-15T00:21:29;2.37;;;1.10;;
64633;SDS011;51043;52.406;9.690;2023-01-15T00:23:56;4.27;;;1.20;;
64633;SDS011;51043;52.406;9.690;2023-01-15T00:26:41;3.90;;;1.20;;
64633;SDS011;51043;52.406;9.690;2023-01-15T00:29:26;3.43;;;1.10;;
64633;SDS011;51043;52.406;9.690;2023-01-15T00:31:55;3.07;;;1.37;;
64633;SDS011;51043;52.406;9.690;2023-01-15T00:34:28;4.27;;;1.47;;
64633;SDS011;51043;52.406;9.690;2023-01-15T00:36:56;5.73;;;1.53;;
64633;SDS011;51043;52.406;9.690;2023-01-15T00:39:24;4.47;;;1.60;;
64633;SDS011;51043;52.406;9.690;2023-01-15T00:41:52;3.27;;;1.30;;
64633;SDS011;51043;52.406;9.690;2023-01-15T00:44:19;1.37;;;0.90;;
64633;SDS011;51043;52.406;9.690;2023-01-15T00:46:47;2.80;;;1.10;;
64633;SDS011;51043;52.406;9.690;2023-01-15T00:49:14;1.00;;;1.00;;
64633;SDS011;51043;52.406;9.690;2023-01-15T00:51:41;4.77;;;1.30;;
64633;SDS011;51043;52.406;9.690;2023-01-15T00:54:08;3.27;;;1.30;;
64633;SDS011;51043;52.406;9.690;2023-01-15T00:56:35;2.87;;;1.27;;
64633;SDS011;51043;52.406;9.690;2023-01-15T00:59:02;5.73;;;1.60;;
64633;SDS011;51043;52.406;9.690;2023-01-15T01:01:30;4.60;;;1.50;;
64633;SDS011;51043;52.406;9.690;2023-01-15T01:03:57;2.40;;;1.20;;
64633;SDS011;51043;52.406;9.690;2023-01-15T01:06:25;3.20;;;1.47;;
64633;SDS011;51043;52.406;9.690;2023-01-15T01:08:52;1.00;;;1.00;;
64633;SDS011;51043;52.406;9.690;2023-01-15T01:11:20;3.30;;;1.33;;
64633;SDS011;51043;52.406;9.690;2023-01-15T01:13:54;2.03;;;1.20;;
64633;SDS011;51043;52.406;9.690;2023-01-15T01:16:29;3.77;;;1.10;;
64633;SDS011;51043;52.406;9.690;2023-01-15T01:19:01;2.37;;;0.90;;
64633;SDS011;51043;52.406;9.690;2023-01-15T01:21:45;1.73;;;1.30;;
64633;SDS011;51043;52.406;9.690;2023-01-15T01:24:18;2.50;;;1.47;;
64633;SDS011;51043;52.406;9.690;2023-01-15T01:26:47;2.43;;;1.30;;
64633;SDS011;51043;52.406;9.690;2023-01-15T01:29:16;4.80;;;1.60;;
64633;SDS011;51043;52.406;9.690;2023-01-15T01:31:45;2.47;;;1.70;;
64633;SDS011;51043;52.406;9.690;2023-01-15T01:34:12;2.57;;;1.37;;
64633;SDS011;51043;52.406;9.690;2023-01-15T01:36:40;1.20;;;1.10;;
64633;SDS011;51043;52.406;9.690;2023-01-15T01:39:12;3.57;;;1.53;;
64633;SDS011;51043;52.406;9.690;2023-01-15T01:41:40;2.83;;;1.03;;
64633;SDS011;51043;52.406;9.690;2023-01-15T01:47:00;1.83;;;1.10;;
64633;SDS011;51043;52.406;9.690;2023-01-15T01:49:30;6.93;;;1.50;;
64633;SDS011;51043;52.406;9.690;2023-01-15T01:52:00;1.47;;;1.00;;
64633;SDS011;51043;52.406;9.690;2023-01-15T01:54:32;1.97;;;1.30;;
64633;SDS011;51043;52.406;9.690;2023-01-15T01:57:01;3.53;;;1.17;;
64633;SDS011;51043;52.406;9.690;2023-01-15T01:59:29;1.97;;;1.00;;
64633;SDS011;51043;52.406;9.690;2023-01-15T02:01:57;4.23;;;1.50;;
64633;SDS011;51043;52.406;9.690;2023-01-15T02:04:26;3.00;;;0.90;;
64633;SDS011;51043;52.406;9.690;2023-01-15T02:06:55;6.10;;;1.60;;
64633;SDS011;51043;52.406;9.690;2023-01-15T02:09:25;2.80;;;1.20;;
64633;SDS011;51043;52.406;9.690;2023-01-15T02:11:52;1.83;;;0.87;;
64633;SDS011;51043;52.406;9.690;2023-01-15T02:14:30;1.93;;;1.00;;
64633;SDS011;51043;52.406;9.690;2023-01-15T02:17:15;4.03;;;1.10;;
64633;SDS011;51043;52.406;9.690;2023-01-15T02:20:14;1.60;;;1.20;;
64633;SDS011;51043;52.406;9.690;2023-01-15T02:23:00;3.90;;;1.00;;
64633;SDS011;51043;52.406;9.690;2023-01-15T02:28:39;3.10;;;1.10;;
64633;SDS011;51043;52.406;9.690;2023-01-15T02:34:09;1.17;;;0.97;;
64633;SDS011;51043;52.406;9.690;2023-01-15T02:36:43;4.57;;;1.20;;
64633;SDS011;51043;52.406;9.690;2023-01-15T02:39:21;4.43;;;1.03;;
64633;SDS011;51043;52.406;9.690;2023-01-15T02:41:51;1.33;;;0.90;;
64633;SDS011;51043;52.406;9.690;2023-01-15T02:44:24;2.13;;;1.10;;
64633;SDS011;51043;52.406;9.690;2023-01-15T02:46:55;1.67;;;1.07;;
64633;SDS011;51043;52.406;9.690;2023-01-15T02:49:25;1.23;;;1.00;;
64633;SDS011;51043;52.406;9.690;2023-01-15T02:52:01;9.03;;;1.60;;
64633;SDS011;51043;52.406;9.690;2023-01-15T02:54:53;3.97;;;1.20;;
64633;SDS011;51043;52.406;9.690;2023-01-15T02:57:21;3.00;;;0.97;;
64633;SDS011;51043;52.406;9.690;2023-01-15T02:59:54;0.97;;;0.90;;
64633;SDS011;51043;52.406;9.690;2023-01-15T03:02:25;1.47;;;1.03;;
64633;SDS011;51043;52.406;9.690;2023-01-15T03:07:36;3.63;;;1.10;;
64633;SDS011;51043;52.406;9.690;2023-01-15T03:10:12;3.03;;;1.20;;
64633;SDS011;51043;52.406;9.690;2023-01-15T03:12:49;2.73;;;1.10;;
64633;SDS011;51043;52.406;9.690;2023-01-15T03:15:45;1.10;;;1.00;;
64633;SDS011;51043;52.406;9.690;2023-01-15T03:18:44;1.07;;;0.90;;
64633;SDS011;51043;52.406;9.690;2023-01-15T03:21:16;1.20;;;1.00;;
64633;SDS011;51043;52.406;9.690;2023-01-15T03:23:52;1.50;;;0.90;;
64633;SDS011;51043;52.406;9.690;2023-01-15T03:26:24;2.97;;;1.27;;
64633;SDS011;51043;52.406;9.690;2023-01-15T03:28:52;2.33;;;1.20;;
64633;SDS011;51043;52.406;9.690;2023-01-15T03:31:21;3.87;;;1.27;;
64633;SDS011;51043;52.406;9.690;2023-01-15T03:33:48;1.50;;;1.07;;
64633;SDS011;51043;52.406;9.690;2023-01-15T03:36:18;2.47;;;1.10;;
64633;SDS011;51043;52.406;9.690;2023-01-15T03:38:47;2.37;;;1.30;;
64633;SDS011;51043;52.406;9.690;2023-01-15T03:47:23;6.33;;;1.70;;
64633;SDS011;51043;52.406;9.690;2023-01-15T03:55:53;2.10;;;1.30;;
64633;SDS011;51043;52.406;9.690;2023-01-15T03:58:26;2.20;;;1.43;;
64633;SDS011;51043;52.406;9.690;2023-01-15T04:01:04;3.20;;;1.50;;
64633;SDS011;51043;52.406;9.690;2023-01-15T04:03:36;4.57;;;1.70;;
64633;SDS011;51043;52.406;9.690;2023-01-15T04:06:04;4.87;;;1.50;;
64633;SDS011;51043;52.406;9.690;2023-01-15T04:08:34;8.50;;;1.70;;
64633;SDS011;51043;52.406;9.690;2023-01-15T04:11:04;8.13;;;1.17;;
64633;SDS011;51043;52.406;9.690;2023-01-15T04:13:39;3.53;;;1.50;;
64633;SDS011;51043;52.406;9.690;2023-01-15T04:16:11;6.23;;;2.80;;
64633;SDS011;51043;52.406;9.690;2023-01-15T04:18:38;6.07;;;1.63;;
64633;SDS011;51043;52.406;9.690;2023-01-15T04:21:06;6.53;;;1.40;;
64633;SDS011;51043;52.406;9.690;2023-01-15T04:23:33;2.70;;;1.30;;
64633;SDS011;51043;52.406;9.690;2023-01-15T04:26:00;4.80;;;1.40;;
64633;SDS011;51043;52.406;9.690;2023-01-15T04:28:26;2.83;;;1.50;;
64633;SDS011;51043;52.406;9.690;2023-01-15T04:30:55;2.87;;;1.40;;
64633;SDS011;51043;52.406;9.690;2023-01-15T04:33:22;5.27;;;1.57;;
64633;SDS011;51043;52.406;9.690;2023-01-15T04:35:49;3.80;;;1.37;;
64633;SDS011;51043;52.406;9.690;2023-01-15T04:38:16;3.97;;;1.37;;
64633;SDS011;51043;52.406;9.690;2023-01-15T04:40:45;4.43;;;1.60;;
64633;SDS011;51043;52.406;9.690;2023-01-15T04:43:31;5.23;;;2.10;;
64633;SDS011;51043;52.406;9.690;2023-01-15T04:46:19;6.43;;;1.60;;
64633;SDS011;51043;52.406;9.690;2023-01-15T04:48:47;3.07;;;1.60;;
64633;SDS011;51043;52.406;9.690;2023-01-15T04:51:14;4.17;;;1.50;;
64633;SDS011;51043;52.406;9.690;2023-01-15T04:53:40;6.83;;;1.77;;
64633;SDS011;51043;52.406;9.690;2023-01-15T04:56:07;2.37;;;1.47;;
64633;SDS011;51043;52.406;9.690;2023-01-15T04:58:34;4.77;;;1.53;;
64633;SDS011;51043;52.406;9.690;2023-01-15T05:01:01;4.27;;;1.80;;
64633;SDS011;51043;52.406;9.690;2023-01-15T05:03:30;6.53;;;1.60;;
64633;SDS011;51043;52.406;9.690;2023-01-15T05:06:01;4.60;;;1.90;;
64633;SDS011;51043;52.406;9.690;2023-01-15T05:08:28;4.73;;;1.87;;
64633;SDS011;51043;52.406;9.690;2023-01-15T05:10:55;3.90;;;1.50;;
64633;SDS011;51043;52.406;9.690;2023-01-15T05:13:25;10.53;;;2.17;;
64633;SDS011;51043;52.406;9.690;2023-01-15T05:15:52;6.60;;;2.17;;
64633;SDS011;51043;52.406;9.690;2023-01-15T05:18:19;6.90;;;1.97;;
64633;SDS011;51043;52.406;9.690;2023-01-15T05:20:46;7.90;;;2.50;;
64633;SDS011;51043;52.406;9.690;2023-01-15T05:23:13;4.77;;;1.80;;
64633;SDS011;51043;52.406;9.690;2023-01-15T05:25:40;6.33;;;2.50;;
64633;SDS011;51043;52.406;9.690;2023-01-15T05:28:06;5.07;;;1.90;;
64633;SDS011;51043;52.406;9.690;2023-01-15T05:30:33;4.97;;;1.80;;
64633;SDS011;51043;52.406;9.690;2023-01-15T05:33:01;4.47;;;2.20;;
64633;SDS011;51043;52.406;9.690;2023-01-15T05:35:27;4.60;;;1.90;;
64633;SDS011;51043;52.406;9.690;2023-01-15T05:37:54;4.57;;;1.73;;
64633;SDS011;51043;52.406;9.690;2023-01-15T05:40:21;8.83;;;1.67;;
64633;SDS011;51043;52.406;9.690;2023-01-15T05:42:48;10.77;;;2.10;;
64633;SDS011;51043;52.406;9.690;2023-01-15T05:45:14;9.23;;;2.23;;
64633;SDS011;51043;52.406;9.690;2023-01-15T05:47:41;7.93;;;1.97;;
64633;SDS011;51043;52.406;9.690;2023-01-15T05:50:08;1.93;;;1.20;;
64633;SDS011;51043;52.406;9.690;2023-01-15T05:52:36;6.03;;;2.00;;
64633;SDS011;51043;52.406;9.690;2023-01-15T05:55:02;7.33;;;2.07;;
64633;SDS011;51043;52.406;9.690;2023-01-15T05:57:29;3.30;;;1.63;;
64633;SDS011;51043;52.406;9.690;2023-01-15T05:59:58;6.17;;;2.00;;
64633;SDS011;51043;52.406;9.690;2023-01-15T06:02:24;6.37;;;2.20;;
64633;SDS011;51043;52.406;9.690;2023-01-15T06:04:51;4.87;;;1.87;;
64633;SDS011;51043;52.406;9.690;2023-01-15T06:07:18;6.50;;;2.30;;
64633;SDS011;51043;52.406;9.690;2023-01-15T06:09:45;6.63;;;2.23;;
64633;SDS011;51043;52.406;9.690;2023-01-15T06:12:11;3.80;;;2.00;;
64633;SDS011;51043;52.406;9.690;2023-01-15T06:14:38;4.87;;;2.17;;
64633;SDS011;51043;52.406;9.690;2023-01-15T06:17:05;9.60;;;2.30;;
64633;SDS011;51043;52.406;9.690;2023-01-15T06:19:32;4.97;;;2.07;;
64633;SDS011;51043;52.406;9.690;2023-01-15T06:21:58;8.13;;;2.00;;
64633;SDS011;51043;52.406;9.690;2023-01-15T06:24:25;5.77;;;1.63;;
64633;SDS011;51043;52.406;9.690;2023-01-15T06:26:52;6.67;;;2.50;;
64633;SDS011;51043;52.406;9.690;2023-01-15T06:29:19;7.73;;;2.20;;
64633;SDS011;51043;52.406;9.690;2023-01-15T06:31:46;5.43;;;2.10;;
64633;SDS011;51043;52.406;9.690;2023-01-15T06:34:14;9.10;;;2.83;;
64633;SDS011;51043;52.406;9.690;2023-01-15T06:36:41;3.20;;;2.00;;
64633;SDS011;51043;52.406;9.690;2023-01-15T06:39:07;4.50;;;1.80;;
64633;SDS011;51043;52.406;9.690;2023-01-15T06:41:34;10.30;;;3.03;;
64633;SDS011;51043;52.406;9.690;2023-01-15T06:44:20;6.63;;;1.97;;
64633;SDS011;51043;52.406;9.690;2023-01-15T06:47:13;10.30;;;2.33;;
64633;SDS011;51043;52.406;9.690;2023-01-15T06:49:47;5.37;;;1.80;;
64633;SDS011;51043;52.406;9.690;2023-01-15T06:52:19;8.73;;;2.43;;
64633;SDS011;51043;52.406;9.690;2023-01-15T06:54:46;8.10;;;2.37;;
64633;SDS011;51043;52.406;9.690;2023-01-15T06:57:13;5.60;;;2.20;;
64633;SDS011;51043;52.406;9.690;2023-01-15T06:59:40;6.60;;;2.37;;
64633;SDS011;51043;52.406;9.690;2023-01-15T07:02:08;6.17;;;2.20;;
64633;SDS011;51043;52.406;9.690;2023-01-15T07:04:36;2.90;;;1.73;;
64633;SDS011;51043;52.406;9.690;2023-01-15T07:07:03;9.07;;;2.50;;
64633;SDS011;51043;52.406;9.690;2023-01-15T07:09:30;6.70;;;2.43;;
64633;SDS011;51043;52.406;9.690;2023-01-15T07:11:57;5.70;;;2.27;;
64633;SDS011;51043;52.406;9.690;2023-01-15T07:14:24;8.77;;;2.70;;
64633;SDS011;51043;52.406;9.690;2023-01-15T07:16:53;6.50;;;2.40;;
64633;SDS011;51043;52.406;9.690;2023-01-15T07:19:20;6.53;;;2.23;;
64633;SDS011;51043;52.406;9.690;2023-01-15T07:21:47;4.53;;;2.00;;
64633;SDS011;51043;52.406;9.690;2023-01-15T07:24:14;8.90;;;2.23;;
64633;SDS011;51043;52.406;9.690;2023-01-15T07:26:42;5.43;;;2.00;;
64633;SDS011;51043;52.406;9.690;2023-01-15T07:29:10;9.57;;;2.30;;
64633;SDS011;51043;52.406;9.690;2023-01-15T07:31:37;4.37;;;2.00;;
64633;SDS011;51043;52.406;9.690;2023-01-15T07:34:04;4.80;;;1.70;;
64633;SDS011;51043;52.406;9.690;2023-01-15T07:36:31;5.47;;;2.00;;
64633;SDS011;51043;52.406;9.690;2023-01-15T07:38:58;6.00;;;2.40;;
64633;SDS011;51043;52.406;9.690;2023-01-15T07:41:25;4.20;;;1.73;;
64633;SDS011;51043;52.406;9.690;2023-01-15T07:44:11;6.50;;;2.07;;
64633;SDS011;51043;52.406;9.690;2023-01-15T07:46:56;15.60;;;2.80;;
64633;SDS011;51043;52.406;9.690;2023-01-15T07:49:42;9.43;;;2.33;;
64633;SDS011;51043;52.406;9.690;2023-01-15T07:54:40;8.30;;;2.63;;
64633;SDS011;51043;52.406;9.690;2023-01-15T07:57:07;7.73;;;2.97;;
64633;SDS011;51043;52.406;9.690;2023-01-15T07:59:36;8.37;;;2.63;;
64633;SDS011;51043;52.406;9.690;2023-01-15T08:02:03;4.80;;;2.20;;
64633;SDS011;51043;52.406;9.690;2023-01-15T08:04:30;7.17;;;1.93;;
64633;SDS011;51043;52.406;9.690;2023-01-15T08:06:58;9.50;;;2.30;;
64633;SDS011;51043;52.406;9.690;2023-01-15T08:09:26;6.97;;;2.47;;
64633;SDS011;51043;52.406;9.690;2023-01-15T08:11:54;7.57;;;2.40;;
64633;SDS011;51043;52.406;9.690;2023-01-15T08:14:42;8.07;;;2.43;;
64633;SDS011;51043;52.406;9.690;2023-01-15T08:17:28;8.00;;;2.60;;
64633;SDS011;51043;52.406;9.690;2023-01-15T08:19:55;8.17;;;3.20;;
64633;SDS011;51043;52.406;9.690;2023-01-15T08:22:22;8.27;;;2.40;;
64633;SDS011;51043;52.406;9.690;2023-01-15T08:24:48;12.53;;;3.10;;
64633;SDS011;51043;52.406;9.690;2023-01-15T08:27:15;6.43;;;2.60;;
64633;SDS011;51043;52.406;9.690;2023-01-15T08:29:42;9.23;;;2.63;;
64633;SDS011;51043;52.406;9.690;2023-01-15T08:32:09;8.20;;;2.93;;
64633;SDS011;51043;52.406;9.690;2023-01-15T08:34:36;7.30;;;2.57;;
64633;SDS011;51043;52.406;9.690;2023-01-15T08:37:03;9.80;;;2.60;;
64633;SDS011;51043;52.406;9.690;2023-01-15T08:39:29;16.17;;;2.80;;
64633;SDS011;51043;52.406;9.690;2023-01-15T08:41:57;4.40;;;1.83;;
64633;SDS011;51043;52.406;9.690;2023-01-15T08:44:23;9.40;;;2.60;;
64633;SDS011;51043;52.406;9.690;2023-01-15T08:46:50;8.00;;;2.50;;
64633;SDS011;51043;52.406;9.690;2023-01-15T08:49:19;8.33;;;2.53;;
64633;SDS011;51043;52.406;9.690;2023-01-15T08:51:46;6.83;;;2.30;;
64633;SDS011;51043;52.406;9.690;2023-01-15T08:54:18;4.33;;;1.90;;
64633;SDS011;51043;52.406;9.690;2023-01-15T08:56:46;6.43;;;2.47;;
64633;SDS011;51043;52.406;9.690;2023-01-15T08:59:13;6.87;;;2.10;;
64633;SDS011;51043;52.406;9.690;2023-01-15T09:01:40;3.20;;;1.60;;
64633;SDS011;51043;52.406;9.690;2023-01-15T09:04:08;12.17;;;2.20;;
64633;SDS011;51043;52.406;9.690;2023-01-15T09:06:43;5.10;;;2.10;;
64633;SDS011;51043;52.406;9.690;2023-01-15T09:09:11;5.60;;;1.87;;
64633;SDS011;51043;52.406;9.690;2023-01-15T09:11:39;9.77;;;2.30;;
64633;SDS011;51043;52.406;9.690;2023-01-15T09:14:07;7.60;;;2.17;;
64633;SDS011;51043;52.406;9.690;2023-01-15T09:16:35;7.93;;;2.63;;
64633;SDS011;51043;52.406;9.690;2023-01-15T09:19:03;10.83;;;3.67;;
64633;SDS011;51043;52.406;9.690;2023-01-15T09:21:30;10.93;;;3.20;;
64633;SDS011;51043;52.406;9.690;2023-01-15T09:23:58;12.60;;;3.70;;
64633;SDS011;51043;52.406;9.690;2023-01-15T09:28:54;9.60;;;3.53;;
64633;SDS011;51043;52.406;9.690;2023-01-15T09:31:21;9.77;;;2.70;;
64633;SDS011;51043;52.406;9.690;2023-01-15T09:33:49;5.03;;;2.00;;
64633;SDS011;51043;52.406;9.690;2023-01-15T09:36:29;5.47;;;2.00;;
64633;SDS011;51043;52.406;9.690;2023-01-15T09:38:58;5.33;;;2.03;;
64633;SDS011;51043;52.406;9.690;2023-01-15T09:41:29;6.77;;;1.40;;
64633;SDS011;51043;52.406;9.690;2023-01-15T09:47:33;5.97;;;2.00;;
64633;SDS011;51043;52.406;9.690;2023-01-15T09:53:37;6.80;;;2.20;;
64633;SDS011;51043;52.406;9.690;2023-01-15T09:56:13;8.07;;;2.07;;
64633;SDS011;51043;52.406;9.690;2023-01-15T09:58:47;6.23;;;2.00;;
64633;SDS011;51043;52.406;9.690;2023-01-15T10:01:15;6.23;;;1.90;;
64633;SDS011;51043;52.406;9.690;2023-01-15T10:03:50;12.43;;;2.43;;
64633;SDS011;51043;52.406;9.690;2023-01-15T10:06:37;5.97;;;1.87;;
64633;SDS011;51043;52.406;9.690;2023-01-15T10:09:12;7.17;;;2.23;;
64633;SDS011;51043;52.406;9.690;2023-01-15T10:11:44;9.03;;;2.37;;
64633;SDS011;51043;52.406;9.690;2023-01-15T10:14:43;4.43;;;1.90;;
64633;SDS011;51043;52.406;9.690;2023-01-15T10:17:24;4.30;;;1.80;;
64633;SDS011;51043;52.406;9.690;2023-01-15T10:20:00;7.50;;;2.03;;
64633;SDS011;51043;52.406;9.690;2023-01-15T10:22:47;4.93;;;1.70;;
64633;SDS011;51043;52.406;9.690;2023-01-15T10:25:26;2.97;;;1.33;;
64633;SDS011;51043;52.406;9.690;2023-01-15T10:28:09;8.73;;;2.50;;
64633;SDS011;51043;52.406;9.690;2023-01-15T10:30:45;6.93;;;2.10;;
64633;SDS011;51043;52.406;9.690;2023-01-15T10:36:12;5.20;;;1.60;;
64633;SDS011;51043;52.406;9.690;2023-01-15T10:38:51;7.47;;;1.90;;
64633;SDS011;51043;52.406;9.690;2023-01-15T10:41:41;2.77;;;1.40;;
64633;SDS011;51043;52.406;9.690;2023-01-15T10:47:14;6.17;;;1.90;;
64633;SDS011;51043;52.406;9.690;2023-01-15T10:49:44;6.93;;;2.23;;
64633;SDS011;51043;52.406;9.690;2023-01-15T10:55:06;4.17;;;1.87;;
64633;SDS011;51043;52.406;9.690;2023-01-15T11:00:21;5.67;;;1.60;;
64633;SDS011;51043;52.406;9.690;2023-01-15T11:02:54;8.07;;;2.10;;
64633;SDS011;51043;52.406;9.690;2023-01-15T11:05:33;5.73;;;1.80;;
64633;SDS011;51043;52.406;9.690;2023-01-15T11:08:02;4.47;;;1.87;;
64633;SDS011;51043;52.406;9.690;2023-01-15T11:10:55;8.57;;;1.97;;
64633;SDS011;51043;52.406;9.690;2023-01-15T11:13:26;8.03;;;2.23;;
64633;SDS011;51043;52.406;9.690;2023-01-15T11:16:13;2.60;;;1.30;;
64633;SDS011;51043;52.406;9.690;2023-01-15T11:19:01;6.60;;;2.00;;
64633;SDS011;51043;52.406;9.690;2023-01-15T11:21:49;13.10;;;1.73;;
64633;SDS011;51043;52.406;9.690;2023-01-15T11:24:18;6.17;;;1.80;;
64633;SDS011;51043;52.406;9.690;2023-01-15T11:26:50;8.03;;;2.40;;
64633;SDS011;51043;52.406;9.690;2023-01-15T11:29:30;3.03;;;1.50;;
64633;SDS011;51043;52.406;9.690;2023-01-15T11:31:59;5.10;;;1.57;;
64633;SDS011;51043;52.406;9.690;2023-01-15T11:34:25;4.80;;;1.63;;
64633;SDS011;51043;52.406;9.690;2023-01-15T11:37:03;5.07;;;1.70;;
64633;SDS011;51043;52.406;9.690;2023-01-15T11:39:30;3.90;;;1.47;;
64633;SDS011;51043;52.406;9.690;2023-01-15T11:42:02;3.40;;;1.67;;
64633;SDS011;51043;52.406;9.690;2023-01-15T11:44:50;3.27;;;1.60;;
64633;SDS011;51043;52.406;9.690;2023-01-15T11:47:50;5.90;;;2.10;;
64633;SDS011;51043;52.406;9.690;2023-01-15T11:50:49;3.60;;;1.67;;
64633;SDS011;51043;52.406;9.690;2023-01-15T11:53:27;6.73;;;1.70;;
64633;SDS011;51043;52.406;9.690;2023-01-15T11:55:59;4.47;;;1.90;;
64633;SDS011;51043;52.406;9.690;2023-01-15T11:58:28;6.13;;;1.70;;
64633;SDS011;51043;52.406;9.690;2023-01-15T12:00:59;2.87;;;1.47;;
64633;SDS011;51043;52.406;9.690;2023-01-15T12:03:27;3.87;;;1.87;;
64633;SDS011;51043;52.406;9.690;2023-01-15T12:06:03;5.27;;;1.87;;
64633;SDS011;51043;52.406;9.690;2023-01-15T12:08:44;8.97;;;2.03;;
64633;SDS011;51043;52.406;9.690;2023-01-15T12:11:49;4.80;;;1.80;;
64633;SDS011;51043;52.406;9.690;2023-01-15T12:28:12;4.57;;;1.43;;
64633;SDS011;51043;52.406;9.690;2023-01-15T12:30:44;4.17;;;1.70;;
64633;SDS011;51043;52.406;9.690;2023-01-15T12:33:31;4.37;;;1.87;;
64633;SDS011;51043;52.406;9.690;2023-01-15T12:36:07;4.00;;;1.73;;
64633;SDS011;51043;52.406;9.690;2023-01-15T12:38:50;3.43;;;1.40;;
64633;SDS011;51043;52.406;9.690;2023-01-15T12:47:38;2.93;;;1.57;;
64633;SDS011;51043;52.406;9.690;2023-01-15T12:52:44;6.17;;;1.70;;
64633;SDS011;51043;52.406;9.690;2023-01-15T12:55:21;2.70;;;1.30;;
64633;SDS011;51043;52.406;9.690;2023-01-15T12:57:52;4.73;;;1.43;;
64633;SDS011;51043;52.406;9.690;2023-01-15T13:03:00;5.00;;;1.60;;
64633;SDS011;51043;52.406;9.690;2023-01-15T13:05:50;4.30;;;1.40;;
64633;SDS011;51043;52.406;9.690;2023-01-15T13:09:04;6.63;;;2.60;;
64633;SDS011;51043;52.406;9.690;2023-01-15T13:11:16;5.47;;;2.27;;
64633;SDS011;51043;52.406;9.690;2023-01-15T13:13:43;6.47;;;1.87;;
64633;SDS011;51043;52.406;9.690;2023-01-15T13:22:07;7.90;;;1.70;;
64633;SDS011;51043;52.406;9.690;2023-01-15T13:33:44;5.67;;;2.00;;
64633;SDS011;51043;52.406;9.690;2023-01-15T13:36:25;4.60;;;2.03;;
64633;SDS011;51043;52.406;9.690;2023-01-15T13:39:06;3.57;;;1.60;;
64633;SDS011;51043;52.406;9.690;2023-01-15T13:41:40;3.27;;;1.50;;
64633;SDS011;51043;52.406;9.690;2023-01-15T13:44:33;7.80;;;2.10;;
64633;SDS011;51043;52.406;9.690;2023-01-15T13:47:08;5.33;;;1.67;;
64633;SDS011;51043;52.406;9.690;2023-01-15T13:49:38;2.70;;;1.30;;
64633;SDS011;51043;52.406;9.690;2023-01-15T13:52:26;3.43;;;1.60;;
64633;SDS011;51043;52.406;9.690;2023-01-15T13:55:00;13.03;;;2.37;;
64633;SDS011;51043;52.406;9.690;2023-01-15T13:57:38;6.70;;;2.07;;
64633;SDS011;51043;52.406;9.690;2023-01-15T14:00:28;5.03;;;2.10;;
64633;SDS011;51043;52.406;9.690;2023-01-15T14:03:02;5.77;;;1.97;;
64633;SDS011;51043;52.406;9.690;2023-01-15T14:06:02;6.27;;;1.70;;
64633;SDS011;51043;52.406;9.690;2023-01-15T14:08:38;5.67;;;1.80;;
64633;SDS011;51043;52.406;9.690;2023-01-15T14:11:33;5.50;;;2.37;;
64633;SDS011;51043;52.406;9.690;2023-01-15T14:17:28;11.60;;;2.20;;
64633;SDS011;51043;52.406;9.690;2023-01-15T14:21:17;4.97;;;2.03;;
64633;SDS011;51043;52.406;9.690;2023-01-15T14:31:45;5.23;;;1.97;;
64633;SDS011;51043;52.406;9.690;2023-01-15T14:34:31;10.13;;;2.23;;
64633;SDS011;51043;52.406;9.690;2023-01-15T14:37:02;4.17;;;1.80;;
64633;SDS011;51043;52.406;9.690;2023-01-15T14:39:47;5.80;;;2.20;;
64633;SDS011;51043;52.406;9.690;2023-01-15T14:48:03;5.00;;;2.00;;
64633;SDS011;51043;52.406;9.690;2023-01-15T14:50:38;8.47;;;2.00;;
64633;SDS011;51043;52.406;9.690;2023-01-15T14:53:16;6.43;;;1.93;;
64633;SDS011;51043;52.406;9.690;2023-01-15T14:55:55;7.47;;;1.67;;
64633;SDS011;51043;52.406;9.690;2023-01-15T14:58:43;5.83;;;2.20;;
64633;SDS011;51043;52.406;9.690;2023-01-15T15:04:24;3.40;;;1.30;;
64633;SDS011;51043;52.406;9.690;2023-01-15T15:07:12;4.90;;;1.77;;
64633;SDS011;51043;52.406;9.690;2023-01-15T15:10:08;5.63;;;1.90;;
64633;SDS011;51043;52.406;9.690;2023-01-15T15:15:20;8.37;;;2.10;;
64633;SDS011;51043;52.406;9.690;2023-01-15T15:17:56;4.73;;;1.40;;
64633;SDS011;51043;52.406;9.690;2023-01-15T15:23:10;6.23;;;1.80;;
64633;SDS011;51043;52.406;9.690;2023-01-15T15:25:55;3.77;;;1.60;;
64633;SDS011;51043;52.406;9.690;2023-01-15T15:28:25;3.70;;;1.97;;
64633;SDS011;51043;52.406;9.690;2023-01-15T15:30:53;8.23;;;1.70;;
64633;SDS011;51043;52.406;9.690;2023-01-15T15:33:24;2.77;;;1.30;;
64633;SDS011;51043;52.406;9.690;2023-01-15T15:35:55;3.83;;;1.50;;
64633;SDS011;51043;52.406;9.690;2023-01-15T15:38:25;2.87;;;1.40;;
64633;SDS011;51043;52.406;9.690;2023-01-15T15:40:57;4.97;;;1.80;;
64633;SDS011;51043;52.406;9.690;2023-01-15T15:43:49;5.23;;;1.97;;
64633;SDS011;51043;52.406;9.690;2023-01-15T15:46:47;4.63;;;1.83;;
64633;SDS011;51043;52.406;9.690;2023-01-15T15:49:37;3.90;;;1.57;;
64633;SDS011;51043;52.406;9.690;2023-01-15T15:52:42;5.67;;;2.03;;
64633;SDS011;51043;52.406;9.690;2023-01-15T15:54:59;5.93;;;2.10;;
64633;SDS011;51043;52.406;9.690;2023-01-15T15:57:31;5.47;;;1.90;;
64633;SDS011;51043;52.406;9.690;2023-01-15T16:00:00;4.10;;;1.50;;
64633;SDS011;51043;52.406;9.690;2023-01-15T16:02:30;4.03;;;1.73;;
64633;SDS011;51043;52.406;9.690;2023-01-15T16:05:18;4.77;;;1.63;;
64633;SDS011;51043;52.406;9.690;2023-01-15T16:07:46;2.83;;;1.53;;
64633;SDS011;51043;52.406;9.690;2023-01-15T16:10:14;3.33;;;1.80;;
64633;SDS011;51043;52.406;9.690;2023-01-15T16:12:54;7.73;;;1.90;;
64633;SDS011;51043;52.406;9.690;2023-01-15T16:15:25;1.03;;;1.00;;
64633;SDS011;51043;52.406;9.690;2023-01-15T16:17:55;9.20;;;2.10;;
64633;SDS011;51043;52.406;9.690;2023-01-15T16:20:23;4.93;;;1.93;;
64633;SDS011;51043;52.406;9.690;2023-01-15T16:22:54;4.27;;;1.43;;
64633;SDS011;51043;52.406;9.690;2023-01-15T16:25:40;2.80;;;1.37;;
64633;SDS011;51043;52.406;9.690;2023-01-15T16:28:24;3.17;;;1.70;;
64633;SDS011;51043;52.406;9.690;2023-01-15T16:30:58;2.47;;;1.50;;
64633;SDS011;51043;52.406;9.690;2023-01-15T16:33:27;3.23;;;1.80;;
64633;SDS011;51043;52.406;9.690;2023-01-15T16:35:58;1.90;;;1.40;;
64633;SDS011;51043;52.406;9.690;2023-01-15T16:38:33;4.43;;;1.33;;
64633;SDS011;51043;52.406;9.690;2023-01-15T16:41:04;5.67;;;1.70;;
64633;SDS011;51043;52.406;9.690;2023-01-15T16:43:31;4.37;;;1.53;;
64633;SDS011;51043;52.406;9.690;2023-01-15T16:46:17;5.90;;;2.07;;
64633;SDS011;51043;52.406;9.690;2023-01-15T16:48:45;4.20;;;1.63;;
64633;SDS011;51043;52.406;9.690;2023-01-15T16:51:33;2.83;;;1.50;;
64633;SDS011;51043;52.406;9.690;2023-01-15T16:54:03;4.17;;;1.67;;
64633;SDS011;51043;52.406;9.690;2023-01-15T16:59:05;1.20;;;1.10;;
64633;SDS011;51043;52.406;9.690;2023-01-15T17:01:43;4.23;;;1.63;;
64633;SDS011;51043;52.406;9.690;2023-01-15T17:09:34;2.83;;;1.67;;
64633;SDS011;51043;52.406;9.690;2023-01-15T17:12:28;5.47;;;1.93;;
64633;SDS011;51043;52.406;9.690;2023-01-15T17:17:49;4.70;;;1.47;;
64633;SDS011;51043;52.406;9.690;2023-01-15T17:20:18;4.40;;;1.80;;
64633;SDS011;51043;52.406;9.690;2023-01-15T17:22:49;1.80;;;1.30;;
64633;SDS011;51043;52.406;9.690;2023-01-15T17:25:26;2.47;;;1.37;;
64633;SDS011;51043;52.406;9.690;2023-01-15T17:27:57;3.80;;;1.70;;